Flight Track Log - Related Links

Times and Time Zones

All times are in EDT time to prevent confusion due to time zone crossing. See the UAL1218 flight status page for this flight to view local times or setup timezone preferences in your user account.

Time Position Orientation Groundspeed Altitude Reporting Facility
EDT Latitude Longitude Course Direction KTS MPH feet Rate Location/Type
Mon 08:16:13 PM 38.9333 -77.5500 270° West 207 238 2,600  Level Potomac TRACON
Mon 08:17:13 PM 38.9167 -77.6333 256° West 253 291 4,900 2,469 Climbing Potomac TRACON
Mon 08:19:08 PM 38.8844 -77.8158 257° West 280 322 9,800 2,148 Climbing Washington Center
Mon 08:20:09 PM 38.9011 -77.9256 281° West 286 329 11,200 1,664 Climbing Washington Center
Mon 08:21:00 PM 38.9500 -78.3355 270° West  Level FlightAware Approximate
Mon 08:21:07 PM 38.9258 -78.0492 284° West 322 371 13,100  Level Washington Center
Mon 08:22:08 PM 38.9467 -78.1458 286° West 341 392 15,500 2,361 Climbing Washington Center
Mon 08:23:09 PM 38.9644 -78.2906 279° West 348 400 17,900 2,033 Climbing Washington Center
Mon 08:24:09 PM 38.9656 -78.4217 271° West 354 407 19,600 1,815 Climbing Washington Center
Mon 08:25:08 PM 38.9689 -78.5497 272° West 360 414 21,500 1,765 Climbing Washington Center
Mon 08:26:08 PM 38.9736 -78.6861 273° West 371 427 23,100 1,537 Climbing Washington Center
Mon 08:27:09 PM 38.9786 -78.8200 273° West 376 433 24,600 1,563 Climbing Washington Center
Mon 08:28:07 PM 38.9808 -78.9589 271° West 386 444 26,200 1,513 Climbing Washington Center
Mon 08:29:08 PM 38.9853 -79.0953 272° West 386 444 27,600 1,289 Climbing Washington Center
Mon 08:30:08 PM 38.9894 -79.2372 272° West 391 450 28,800 908 Climbing Washington Center
Mon 08:31:07 PM 38.9911 -79.3867 271° West 405 466 29,400 655 Climbing Washington Center
Mon 08:32:07 PM 38.9967 -79.5392 273° West 419 482 30,100 942 Climbing Washington Center
Mon 08:33:08 PM 39.0083 -79.6894 276° West 452 520 31,300 1,100 Climbing Washington Center
Mon 08:34:07 PM 39.0239 -79.8428 277° West 452 520 32,300 1,223 Climbing Washington Center
Mon 08:34:51 PM 39.0328 -79.9622 276° West 446 513 33,400 962 Climbing Indianapolis Center
Mon 08:35:53 PM 39.0517 -80.1297 278° West 441 507 34,000 293 Climbing Indianapolis Center
Mon 08:36:54 PM 39.0817 -80.2847 284° West 445 512 34,000  Level Indianapolis Center
Mon 08:37:55 PM 39.1306 -80.4350 293° West 464 534 34,000  Level Indianapolis Center
Mon 08:38:57 PM 39.1808 -80.5825 294° West 454 522 34,000  Level Indianapolis Center
Mon 08:39:58 PM 39.2283 -80.7269 293° West 444 511 34,000  Level Indianapolis Center
Mon 08:41:00 PM 39.2772 -80.8797 293° West 458 527 34,000  Level Indianapolis Center
Mon 08:42:01 PM 39.3267 -81.0308 293° West 460 529 34,000  Level Indianapolis Center
Mon 08:43:03 PM 39.3783 -81.1842 294° West 468 539 34,000  Level Indianapolis Center
Mon 08:44:04 PM 39.4403 -81.3686 294° West 469 540 34,000  Level Indianapolis Center
Mon 08:45:05 PM 39.4906 -81.5222 293° West 467 537 34,000  Level Indianapolis Center
Mon 08:46:07 PM 39.5408 -81.6733 293° West 462 532 34,000  Level Indianapolis Center
Mon 08:47:08 PM 39.5900 -81.8233 293° West 456 525 34,000  Level Indianapolis Center
Mon 08:48:09 PM 39.6383 -81.9731 293° West 453 521 34,000  Level Indianapolis Center
Mon 08:49:11 PM 39.6894 -82.1303 293° West 451 519 34,000  Level Indianapolis Center
Mon 08:50:12 PM 39.7636 -82.2717 304° West 477 549 34,000 -49 Level Indianapolis Center
Mon 08:51:13 PM 39.8414 -82.4072 307° West 469 540 33,900 -49 Descending Indianapolis Center
Mon 08:52:15 PM 39.9186 -82.5450 306° West 469 540 33,900 49 Level Indianapolis Center
Mon 08:53:16 PM 39.9811 -82.6883 300° West 455 524 34,000 49 Climbing Indianapolis Center
Mon 08:54:17 PM 40.0233 -82.8417 290° West 446 513 34,000  Level Indianapolis Center
Mon 08:55:19 PM 40.0639 -83.0211 287° West 442 509 34,000  Level Indianapolis Center
Mon 08:56:20 PM 40.0989 -83.1761 286° West 444 511 34,000 -49 Level Indianapolis Center
Mon 08:57:21 PM 40.1292 -83.3333 284° West 447 514 33,900  Descending Indianapolis Center
Mon 08:58:22 PM 40.1558 -83.4917 282° West 448 516 34,000 49 Climbing Indianapolis Center
Mon 08:59:24 PM 40.1850 -83.6528 283° West 454 522 34,000  Level Indianapolis Center
Mon 09:00:25 PM 40.2128 -83.8167 283° West 458 527 34,000  Level Indianapolis Center
Mon 09:01:26 PM 40.2414 -83.9806 283° West 461 531 34,000  Level Indianapolis Center
Mon 09:02:27 PM 40.2706 -84.1472 283° West 467 537 34,000  Level Indianapolis Center
Mon 09:03:28 PM 40.2975 -84.3156 282° West 469 540 34,000  Level Indianapolis Center
Mon 09:04:30 PM 40.3250 -84.4819 282° West 467 537 34,000  Level Indianapolis Center
Mon 09:05:31 PM 40.3528 -84.6511 282° West 470 541 34,000  Level Indianapolis Center
Mon 09:06:32 PM 40.3794 -84.8181 282° West 466 536 34,000  Level Indianapolis Center
Mon 09:07:33 PM 40.4061 -84.9850 282° West 471 542 34,000  Level Indianapolis Center
Mon 09:08:22 PM 40.4311 -85.1494 281° West 471 542 34,000  Level Chicago Center
Mon 09:09:24 PM 40.4578 -85.3167 282° West 471 542 34,000  Level Chicago Center
Mon 09:10:26 PM 40.4839 -85.4850 282° West 473 544 34,000  Level Chicago Center
Mon 09:11:27 PM 40.5092 -85.6511 281° West 469 540 34,000  Level Chicago Center
Mon 09:12:29 PM 40.5347 -85.8189 281° West 471 542 34,000  Level Chicago Center
Mon 09:13:31 PM 40.5611 -85.9867 282° West 473 544 34,000  Level Chicago Center
Mon 09:14:33 PM 40.5917 -86.1872 281° West 471 542 34,000  Level Chicago Center
Mon 09:15:35 PM 40.6164 -86.3539 281° West 469 540 34,000  Level Chicago Center
Mon 09:16:36 PM 40.6414 -86.5206 281° West 469 540 34,000  Level Chicago Center
Mon 09:17:38 PM 40.6644 -86.6875 280° West 468 539 34,000  Level Chicago Center
Mon 09:18:40 PM 40.6781 -86.8594 276° West 472 543 34,000  Level Chicago Center
Mon 09:19:42 PM 40.6961 -87.0269 278° West 467 537 34,000  Level Chicago Center
Mon 09:20:44 PM 40.7128 -87.2111 277° West 465 535 34,000  Level Chicago Center
Mon 09:21:45 PM 40.7289 -87.3797 277° West 464 534 34,000  Level Chicago Center
Mon 09:22:47 PM 40.7478 -87.5814 277° West 464 534 34,000  Level Chicago Center
Mon 09:23:49 PM 40.7619 -87.7508 276° West 465 535 34,000  Level Chicago Center
Mon 09:24:51 PM 40.7781 -87.9228 277° West 470 541 34,000  Level Chicago Center
Mon 09:25:52 PM 40.7928 -88.0944 277° West 472 543 34,000  Level Chicago Center
Mon 09:26:54 PM 40.8075 -88.2669 276° West 472 543 34,000  Level Chicago Center
Mon 09:27:56 PM 40.8219 -88.4386 276° West 471 542 34,000  Level Chicago Center
Mon 09:28:57 PM 40.8369 -88.6097 277° West 470 541 34,000  Level Chicago Center
Mon 09:29:59 PM 40.8536 -88.8158 276° West 470 541 34,000  Level Chicago Center
Mon 09:31:01 PM 40.8650 -88.9678 276° West 471 542 34,000  Level Chicago Center
Mon 09:32:03 PM 40.8778 -89.1394 276° West 471 542 34,000  Level Chicago Center
Mon 09:33:04 PM 40.8911 -89.3086 276° West 467 537 34,000  Level Chicago Center
Mon 09:34:06 PM 40.9058 -89.5108 276° West 465 535 34,000  Level Chicago Center
Mon 09:35:08 PM 40.9178 -89.6644 276° West 462 532 34,000  Level Chicago Center
Mon 09:36:10 PM 40.9294 -89.8336 275° West 464 534 34,000  Level Chicago Center
Mon 09:37:11 PM 40.9444 -90.0336 276° West 459 528 34,000  Level Chicago Center
Mon 09:38:13 PM 40.9544 -90.1997 275° West 457 526 34,000  Level Chicago Center
Mon 09:39:15 PM 40.9661 -90.3739 275° West 454 522 34,000  Level Chicago Center
Mon 09:40:16 PM 40.9767 -90.5397 275° West 453 521 34,000  Level Chicago Center
Mon 09:41:18 PM 40.9864 -90.7078 274° West 457 526 34,000  Level Chicago Center
Mon 09:42:20 PM 40.9969 -90.8750 275° West 457 526 34,000 439 Level Chicago Center
Mon 09:43:21 PM 41.0067 -91.0400 275° West 454 522 34,900 976 Climbing Chicago Center
Mon 09:44:23 PM 41.0161 -91.2067 274° West 454 522 36,000 532 Climbing Chicago Center
Mon 09:45:25 PM 41.0264 -91.3728 275° West 454 522 36,000  Level Chicago Center
Mon 09:46:26 PM 41.0367 -91.5708 274° West 450 518 36,000  Level Chicago Center
Mon 09:47:28 PM 41.0458 -91.7383 274° West 448 516 36,000  Level Chicago Center
Mon 09:48:29 PM 41.0550 -91.9006 274° West 448 516 36,000  Level Chicago Center
Mon 09:49:31 PM 41.0622 -92.0608 273° West 444 511 36,000  Level Chicago Center
Mon 09:50:32 PM 41.0714 -92.2225 274° West 444 511 36,000  Level Chicago Center
Mon 09:51:34 PM 41.0786 -92.3844 273° West 445 512 36,000  Level Chicago Center
Mon 09:52:35 PM 41.0858 -92.5458 273° West 444 511 36,000  Level Chicago Center
Mon 09:53:37 PM 41.0950 -92.7419 274° West 449 517 36,000  Level Chicago Center
Mon 09:54:38 PM 41.1025 -92.9058 274° West 450 518 36,000  Level Chicago Center
Mon 09:55:40 PM 41.1092 -93.0706 273° West 452 520 36,000  Level Chicago Center
Mon 09:56:35 PM 41.1172 -93.2317 274° West 443 510 36,000  Level Minneapolis Center
Mon 09:57:36 PM 41.1242 -93.3978 273° West 451 519 36,000  Level Minneapolis Center
Mon 09:58:49 PM 41.1294 -93.5681 272° West 459 528 36,000  Level Minneapolis Center
Mon 09:59:55 PM 41.1347 -93.7686 272° West 461 531 36,000  Level Minneapolis Center
Mon 10:00:56 PM 41.1442 -93.9633 274° West 453 521 36,000  Level Minneapolis Center
Mon 10:01:57 PM 41.1506 -94.1283 273° West 453 521 36,000  Level Minneapolis Center
Mon 10:02:58 PM 41.1569 -94.3031 273° West 458 527 36,000  Level Minneapolis Center
Mon 10:04:00 PM 41.1611 -94.4728 272° West 461 531 36,000  Level Minneapolis Center
Mon 10:05:13 PM 41.1664 -94.6408 272° West 458 527 36,000  Level Minneapolis Center
Mon 10:06:14 PM 41.1717 -94.8453 272° West 461 531 36,000  Level Minneapolis Center
Mon 10:07:15 PM 41.1758 -95.0156 272° West 461 531 36,000  Level Minneapolis Center
Mon 10:08:17 PM 41.1794 -95.1861 272° West 462 532 36,000  Level Minneapolis Center
Mon 10:09:18 PM 41.1828 -95.3558 272° West 460 529 36,000  Level Minneapolis Center
Mon 10:10:19 PM 41.1853 -95.5258 271° West 460 529 36,000  Level Minneapolis Center
Mon 10:11:20 PM 41.1894 -95.7069 272° West 457 526 36,000  Level Minneapolis Center
Mon 10:12:21 PM 41.1919 -95.8775 271° West 461 531 36,000  Level Minneapolis Center
Mon 10:13:23 PM 41.1950 -96.0486 271° West 463 533 36,000  Level Minneapolis Center
Mon 10:14:24 PM 41.1981 -96.2197 271° West 464 534 36,000  Level Minneapolis Center
Mon 10:15:25 PM 41.2006 -96.3939 271° West 474 545 36,000  Level Minneapolis Center
Mon 10:16:27 PM 41.2028 -96.6061 271° West 477 549 36,000  Level Minneapolis Center
Mon 10:17:28 PM 41.2039 -96.7794 271° West 471 542 36,000  Level Minneapolis Center
Mon 10:18:29 PM 41.2061 -96.9569 271° West 476 548 36,000  Level Minneapolis Center
Mon 10:19:30 PM 41.2072 -97.1350 271° West 480 552 36,000  Level Minneapolis Center
Mon 10:20:31 PM 41.2075 -97.3117 270° West 480 552 36,000  Level Minneapolis Center
Mon 10:21:33 PM 41.2083 -97.4872 270° West 479 551 36,000  Level Minneapolis Center
Mon 10:22:34 PM 41.2094 -97.6625 271° West 477 549 36,000  Level Minneapolis Center
Mon 10:23:35 PM 41.2097 -97.8389 270° West 477 549 36,000  Level Minneapolis Center
Mon 10:24:36 PM 41.2100 -98.0131 270° West 476 548 36,000  Level Minneapolis Center
Mon 10:25:37 PM 41.2097 -98.1872 270° West 474 545 36,000  Level Minneapolis Center
Mon 10:26:39 PM 41.2089 -98.3603 270° West 472 543 36,000  Level Minneapolis Center
Mon 10:27:40 PM 41.2083 -98.5678 270° West 467 537 36,000  Level Minneapolis Center
Mon 10:28:41 PM 41.2083 -98.7406 270° West 468 539 36,000  Level Minneapolis Center
Mon 10:29:32 PM 41.2069 -98.8869 269° West 469 540 36,000  Level Denver Center
Mon 10:30:34 PM 41.2039 -99.0514 269° West 466 536 36,000  Level Denver Center
Mon 10:31:35 PM 41.2025 -99.2414 270° West 465 535 36,000  Level Denver Center
Mon 10:32:49 PM 41.1997 -99.4472 269° West 465 535 36,000  Level Denver Center
Mon 10:33:50 PM 41.1978 -99.6264 269° West 466 536 36,000  Level Denver Center
Mon 10:34:52 PM 41.1944 -99.7897 269° West 465 535 36,000  Level Denver Center
Mon 10:35:53 PM 41.1922 -99.9783 269° West 461 531 36,000  Level Denver Center
Mon 10:36:55 PM 41.1889 -100.1406 268° West 461 531 36,000  Level Denver Center
Mon 10:37:56 PM 41.1850 -100.3036 268° West 462 532 36,000  Level Denver Center
Mon 10:38:57 PM 41.1822 -100.4919 269° West 461 531 36,000  Level Denver Center
Mon 10:39:59 PM 41.1778 -100.6536 268° West 462 532 36,000  Level Denver Center
Mon 10:41:00 PM 41.1719 -100.8406 268° West 461 531 36,000  Level Denver Center
Mon 10:42:02 PM 41.1689 -101.0019 269° West 462 532 36,000  Level Denver Center
Mon 10:43:03 PM 41.1625 -101.1892 267° West 459 528 36,000  Level Denver Center
Mon 10:44:05 PM 41.1581 -101.3506 268° West 461 531 36,000  Level Denver Center
Mon 10:45:06 PM 41.1517 -101.5383 267° West 461 531 36,000  Level Denver Center
Mon 10:46:07 PM 41.1467 -101.7000 268° West 461 531 36,000  Level Denver Center
Mon 10:47:09 PM 41.1411 -101.8619 267° West 461 531 36,000  Level Denver Center
Mon 10:48:10 PM 41.1342 -102.0494 267° West 458 527 36,000  Level Denver Center
Mon 10:49:12 PM 41.1278 -102.2106 267° West 458 527 36,000  Level Denver Center
Mon 10:50:13 PM 41.1211 -102.3981 267° West 458 527 36,000  Level Denver Center
Mon 10:51:14 PM 41.1144 -102.5583 267° West 457 526 36,000  Level Denver Center
Mon 10:52:16 PM 41.1075 -102.7194 267° West 456 525 36,000  Level Denver Center
Mon 10:53:17 PM 41.0994 -102.9067 267° West 458 527 36,000  Level Denver Center
Mon 10:54:19 PM 41.0836 -103.0775 263° West 463 533 36,000  Level Denver Center
Mon 10:55:20 PM 41.0775 -103.2394 267° West 459 528 36,000  Level Denver Center
Mon 10:56:22 PM 41.0858 -103.4239 273° West 450 518 36,000  Level Denver Center
Mon 10:57:23 PM 41.0911 -103.5819 273° West 450 518 36,000  Level Denver Center
Mon 10:58:24 PM 41.0967 -103.7419 273° West 452 520 36,000  Level Denver Center
Mon 10:59:26 PM 41.1039 -103.9250 273° West 448 516 36,000  Level Denver Center
Mon 11:00:28 PM 41.1103 -104.0836 273° West 449 517 36,000  Level Denver Center
Mon 11:01:29 PM 41.1192 -104.2669 274° West 446 513 36,000  Level Denver Center
Mon 11:02:31 PM 41.1258 -104.4250 273° West 447 514 36,000  Level Denver Center
Mon 11:03:32 PM 41.1258 -104.5853 270° West 454 522 36,000  Level Denver Center
Mon 11:04:34 PM 41.1053 -104.7728 262° West 462 532 36,000  Level Denver Center
Mon 11:05:35 PM 41.0844 -104.9361 260° West 467 537 36,000  Level Denver Center
Mon 11:06:37 PM 41.0539 -105.1250 258° West 469 540 36,000  Level Denver Center
Mon 11:07:38 PM 41.0194 -105.2850 254° West 473 544 36,000  Level Denver Center
Mon 11:08:39 PM 40.9897 -105.4372 256° West 468 539 36,000  Level Denver Center
Mon 11:09:41 PM 40.9492 -105.6361 255° West 468 539 36,000  Level Denver Center
Mon 11:10:42 PM 40.9144 -105.8025 255° West 470 541 36,000  Level Denver Center
Mon 11:11:44 PM 40.8808 -105.9686 255° West 470 541 36,000  Level Denver Center
Mon 11:12:45 PM 40.8450 -106.1344 254° West 474 545 36,000  Level Denver Center
Mon 11:13:46 PM 40.8075 -106.3089 254° West 469 540 36,000  Level Denver Center
Mon 11:14:48 PM 40.7722 -106.4692 254° West 474 545 36,000  Level Denver Center
Mon 11:15:49 PM 40.7386 -106.6408 256° West 466 536 36,000  Level Denver Center
Mon 11:16:51 PM 40.7019 -106.8078 254° West 471 542 36,000  Level Denver Center
Mon 11:17:52 PM 40.6672 -106.9725 255° West 470 541 36,000  Level Denver Center
Mon 11:18:54 PM 40.6300 -107.1383 254° West 472 543 36,000  Level Denver Center
Mon 11:19:55 PM 40.5917 -107.3153 254° West 472 543 36,000  Level Denver Center
Mon 11:20:56 PM 40.5503 -107.5008 254° West 473 544 36,000  Level Denver Center
Mon 11:21:58 PM 40.5164 -107.6564 254° West 470 541 36,000  Level Denver Center
Mon 11:22:59 PM 40.4742 -107.8378 253° West 467 537 36,000  Level Denver Center
Mon 11:24:01 PM 40.4383 -107.9933 253° West 467 537 36,000  Level Denver Center
Mon 11:25:02 PM 40.4036 -108.1483 254° West 465 535 36,000  Level Denver Center
Mon 11:26:04 PM 40.3622 -108.3297 253° West 465 535 36,000  Level Denver Center
Mon 11:27:05 PM 40.3264 -108.4853 253° West 468 539 36,000  Level Denver Center
Mon 11:28:07 PM 40.2831 -108.6656 253° West 469 540 36,000  Level Denver Center
Mon 11:29:08 PM 40.2461 -108.8219 253° West 472 543 36,000  Level Denver Center
Mon 11:30:09 PM 40.2033 -109.0044 253° West 471 542 36,000  Level Denver Center
Mon 11:31:12 PM 40.1658 -109.1589 252° West 470 541 36,000  Level Salt Lake Center
Mon 11:32:13 PM 40.1225 -109.3403 253° West 471 542 36,000  Level Salt Lake Center
Mon 11:33:14 PM 40.0842 -109.4953 252° West 471 542 36,000  Level Salt Lake Center
Mon 11:34:16 PM 40.0458 -109.6514 252° West 472 543 36,000  Level Salt Lake Center
Mon 11:35:17 PM 40.0008 -109.8328 252° West 473 544 36,000  Level Salt Lake Center
Mon 11:36:18 PM 39.9625 -109.9889 252° West 473 544 36,000  Level Salt Lake Center
Mon 11:37:19 PM 39.9239 -110.1447 252° West 473 544 36,000  Level Salt Lake Center
Mon 11:38:20 PM 39.8772 -110.3269 252° West 474 545 36,000  Level Salt Lake Center
Mon 11:39:21 PM 39.8383 -110.4833 252° West 475 547 36,000  Level Salt Lake Center
Mon 11:40:22 PM 39.7914 -110.6644 251° West 473 544 36,000  Level Salt Lake Center
Mon 11:41:23 PM 39.7536 -110.8186 252° West 470 541 36,000  Level Salt Lake Center
Mon 11:42:24 PM 39.7133 -110.9725 251° West 470 541 36,000  Level Salt Lake Center
Mon 11:43:25 PM 39.6667 -111.1517 251° West 470 541 36,000  Level Salt Lake Center
Mon 11:44:26 PM 39.6269 -111.3003 251° West 469 540 36,000  Level Salt Lake Center
Mon 11:45:27 PM 39.5839 -111.4600 251° West 468 539 36,000  Level Salt Lake Center
Mon 11:46:28 PM 39.5417 -111.6183 251° West 464 534 36,000  Level Salt Lake Center
Mon 11:47:29 PM 39.5000 -111.7775 251° West 466 536 36,000  Level Salt Lake Center
Mon 11:48:30 PM 39.4575 -111.9369 251° West 468 539 36,000  Level Salt Lake Center
Mon 11:49:31 PM 39.4144 -112.0947 251° West 467 537 36,000  Level Salt Lake Center
Mon 11:50:32 PM 39.3719 -112.2525 251° West 465 535 36,000  Level Salt Lake Center
Mon 11:51:33 PM 39.3217 -112.4436 251° West 468 539 36,000  Level Salt Lake Center
Mon 11:52:34 PM 39.2797 -112.5978 251° West 460 529 36,000  Level Salt Lake Center
Mon 11:53:35 PM 39.2472 -112.7533 255° West 458 527 36,000  Level Salt Lake Center
Mon 11:54:36 PM 39.2106 -112.9169 254° West 471 542 36,000  Level Salt Lake Center
Mon 11:55:37 PM 39.1744 -113.0756 254° West 467 537 36,000  Level Salt Lake Center
Mon 11:56:38 PM 39.1369 -113.2344 253° West 466 536 36,000  Level Salt Lake Center
Mon 11:57:39 PM 39.0997 -113.3942 253° West 467 537 36,000  Level Salt Lake Center
Mon 11:58:40 PM 39.0628 -113.5542 253° West 468 539 36,000  Level Salt Lake Center
Mon 11:59:41 PM 39.0250 -113.7142 253° West 469 540 36,000  Level Salt Lake Center
Tue 12:00:42 AM 38.9875 -113.8719 253° West 465 535 36,000  Level Salt Lake Center
Tue 12:01:43 AM 38.9428 -114.0644 253° West 469 540 36,000  Level Salt Lake Center
Tue 12:02:44 AM 38.9036 -114.2211 252° West 465 535 36,000  Level Salt Lake Center
Tue 12:03:45 AM 38.8661 -114.3783 253° West 463 533 36,000  Level Salt Lake Center
Tue 12:04:46 AM 38.8267 -114.5364 252° West 466 536 36,000  Level Salt Lake Center
Tue 12:05:47 AM 38.7881 -114.6953 253° West 469 540 36,000  Level Salt Lake Center
Tue 12:06:48 AM 38.7489 -114.8544 253° West 471 542 36,000  Level Salt Lake Center
Tue 12:07:49 AM 38.7094 -115.0131 252° West 470 541 36,000  Level Salt Lake Center
Tue 12:08:50 AM 38.6669 -115.1758 252° West 476 548 36,000  Level Salt Lake Center
Tue 12:09:50 AM 38.6228 -115.3542 252° West 474 545 36,000  Level Salt Lake Center
Tue 12:10:51 AM 38.5831 -115.5164 253° West 477 549 36,000  Level Salt Lake Center
Tue 12:11:52 AM 38.5414 -115.6778 252° West 478 550 36,000  Level Salt Lake Center
Tue 12:12:53 AM 38.4994 -115.8381 252° West 479 551 36,000  Level Salt Lake Center
Tue 12:13:54 AM 38.4583 -115.9983 252° West 476 548 36,000  Level Salt Lake Center
Tue 12:14:55 AM 38.4167 -116.1581 252° West 476 548 36,000  Level Salt Lake Center
Tue 12:15:56 AM 38.3744 -116.3189 252° West 478 550 36,000  Level Salt Lake Center
Tue 12:16:56 AM 38.3317 -116.4786 251° West 478 550 36,000 -50 Level Salt Lake Center
Tue 12:17:57 AM 38.2903 -116.6386 252° West 477 549 35,900 -738 Descending Salt Lake Center
Tue 12:18:58 AM 38.2469 -116.7997 251° West 480 552 34,500 -934 Descending Salt Lake Center
Tue 12:19:59 AM 38.2039 -116.9597 251° West 480 552 34,000 -246 Descending Salt Lake Center
Tue 12:21:00 AM 38.1569 -117.1358 251° West 469 540 34,000  Level Salt Lake Center
Tue 12:22:01 AM 38.1119 -117.2994 251° West 481 554 34,000  Level Salt Lake Center
Tue 12:23:01 AM 38.0753 -117.4625 254° West 484 557 34,000  Level Salt Lake Center
Tue 12:24:02 AM 38.0386 -117.6269 254° West 483 556 34,000  Level Salt Lake Center
Tue 12:25:03 AM 38.0022 -117.7908 254° West 485 558 34,000  Level Salt Lake Center
Tue 12:26:04 AM 37.9844 -117.9614 263° West 489 563 34,000  Level Salt Lake Center
Tue 12:27:05 AM 37.9675 -118.1297 263° West 485 558 34,000  Level Salt Lake Center
Tue 12:28:05 AM 37.9494 -118.2983 262° West 483 556 34,000  Level Salt Lake Center
Tue 12:29:06 AM 37.9317 -118.4672 262° West 484 557 34,000  Level Salt Lake Center
Tue 12:30:31 AM 37.9000 -118.7011 260° West 484 557 34,000  Level Oakland Center
Tue 12:31:32 AM 37.8853 -118.8708 264° West 484 557 34,000 -49 Level Oakland Center
Tue 12:32:33 AM 37.8631 -119.0489 261° West 486 559 33,900 -492 Descending Oakland Center
Tue 12:33:34 AM 37.8447 -119.2125 262° West 476 548 33,000 -1,180 Descending Oakland Center
Tue 12:34:35 AM 37.8261 -119.3689 261° West 458 527 31,500 -1,475 Descending Oakland Center
Tue 12:35:36 AM 37.8075 -119.5222 261° West 442 509 30,000 -738 Descending Oakland Center
Tue 12:36:37 AM 37.7906 -119.6717 262° West 431 496 30,000  Level Oakland Center
Tue 12:37:39 AM 37.7717 -119.8258 261° West 440 506 30,000  Level Oakland Center
Tue 12:38:39 AM 37.7500 -120.0117 262° West 445 512 30,000 -248 Level Oakland Center
Tue 12:39:40 AM 37.7294 -120.1672 261° West 448 516 29,500 -1,328 Descending Oakland Center
Tue 12:40:41 AM 37.7108 -120.3239 262° West 450 518 27,300 -1,918 Descending Oakland Center
Tue 12:41:42 AM 37.6894 -120.4850 261° West 461 531 25,600 -1,918 Descending Oakland Center
Tue 12:42:43 AM 37.6689 -120.6431 261° West 456 525 23,400 -2,066 Descending Oakland Center
Tue 12:43:44 AM 37.6489 -120.7936 261° West 441 507 21,400 -1,967 Descending Oakland Center
Tue 12:44:45 AM 37.6297 -120.9389 261° West 427 491 19,400 -1,967 Descending Oakland Center
Tue 12:45:46 AM 37.6133 -121.0814 262° West 413 475 17,400 -1,967 Descending Oakland Center
Tue 12:46:47 AM 37.5975 -121.2253 262° West 393 452 15,400 -1,967 Descending Oakland Center
Tue 12:47:48 AM 37.5822 -121.3564 262° West 382 440 13,400 -1,967 Descending Oakland Center
Tue 12:48:49 AM 37.5564 -121.4806 255° West 370 426 11,400 -1,240 Descending Oakland Center
Tue 12:49:49 AM 37.5344 -121.5972 257° West 347 399 10,900 -843 Descending Oakland Center
Tue 12:50:50 AM 37.5147 -121.6989 256° West 310 357 9,700 -1,230 Descending Oakland Center
Tue 12:51:51 AM 37.4964 -121.8003 257° West 301 346 8,400 -984 Descending Oakland Center
Tue 12:52:52 AM 37.4822 -121.8908 259° West 278 320 7,700 -934 Descending Oakland Center
Tue 12:53:53 AM 37.4975 -121.9672 284° West 235 270 6,500 -1,328 Descending Oakland Center
Tue 12:54:54 AM 37.5169 -122.0364 290° West 216 249 5,000 -1,377 Descending Oakland Center
Tue 12:55:55 AM 37.5356 -122.0981 291° West 198 228 3,700 -1,033 Descending Oakland Center
Tue 12:56:56 AM 37.5497 -122.1528 288° West 180 207 2,900 -787 Descending Oakland Center
Tue 12:57:57 AM 37.5681 -122.2064 293° West 171 197 2,100 -787 Descending Oakland Center

Login

Don't have an account? Register now (free) for customized features, flight alerts, and more!